sensor_id;sensor_type;location;lat;lon;timestamp;pressure;altitude;pressure_sealevel;temperature;humidity
69171;BME280;56279;47.902;12.308;2023-04-26T00:00:42;95302.78;;;6.03;90.65
69171;BME280;56279;47.902;12.308;2023-04-26T00:02:48;95299.94;;;6.04;90.49
69171;BME280;56279;47.902;12.308;2023-04-26T00:04:54;95299.16;;;6.04;90.44
69171;BME280;56279;47.902;12.308;2023-04-26T00:06:57;95301.22;;;6.02;90.64
69171;BME280;56279;47.902;12.308;2023-04-26T00:08:59;95297.28;;;5.99;90.71
69171;BME280;56279;47.902;12.308;2023-04-26T00:11:01;95293.06;;;5.98;90.46
69171;BME280;56279;47.902;12.308;2023-04-26T00:13:02;95293.06;;;5.98;90.46
69171;BME280;56279;47.902;12.308;2023-04-26T00:15:03;95300.13;;;5.98;90.82
69171;BME280;56279;47.902;12.308;2023-04-26T00:17:06;95302.22;;;5.96;90.60
69171;BME280;56279;47.902;12.308;2023-04-26T00:19:08;95294.59;;;5.94;90.88
69171;BME280;56279;47.902;12.308;2023-04-26T00:21:11;95300.06;;;5.93;90.44
69171;BME280;56279;47.902;12.308;2023-04-26T00:23:12;95299.31;;;5.92;90.53
69171;BME280;56279;47.902;12.308;2023-04-26T00:25:15;95290.13;;;5.90;90.54
69171;BME280;56279;47.902;12.308;2023-04-26T00:27:16;95292.19;;;5.88;90.90
69171;BME280;56279;47.902;12.308;2023-04-26T00:29:17;95295.34;;;5.90;90.93
69171;BME280;56279;47.902;12.308;2023-04-26T00:31:19;95294.31;;;5.91;91.00
69171;BME280;56279;47.902;12.308;2023-04-26T00:33:22;95295.91;;;5.92;90.78
69171;BME280;56279;47.902;12.308;2023-04-26T00:35:24;95293.81;;;5.94;90.67
69171;BME280;56279;47.902;12.308;2023-04-26T00:37:25;95292.28;;;5.98;90.53
69171;BME280;56279;47.902;12.308;2023-04-26T00:39:26;95284.66;;;5.96;90.97
69171;BME280;56279;47.902;12.308;2023-04-26T00:41:29;95287.56;;;5.95;90.77
69171;BME280;56279;47.902;12.308;2023-04-26T00:43:30;95283.59;;;5.92;91.14
69171;BME280;56279;47.902;12.308;2023-04-26T00:45:31;95299.53;;;5.91;90.97
69171;BME280;56279;47.902;12.308;2023-04-26T00:47:34;95286.16;;;5.87;91.29
69171;BME280;56279;47.902;12.308;2023-04-26T00:49:38;95291.13;;;5.89;91.17
69171;BME280;56279;47.902;12.308;2023-04-26T00:51:39;95290.91;;;5.90;91.31
69171;BME280;56279;47.902;12.308;2023-04-26T00:53:40;95287.50;;;5.90;90.96
69171;BME280;56279;47.902;12.308;2023-04-26T00:55:43;95284.88;;;5.90;91.15
69171;BME280;56279;47.902;12.308;2023-04-26T00:57:48;95295.34;;;5.90;91.15
69171;BME280;56279;47.902;12.308;2023-04-26T00:59:51;95296.16;;;5.90;91.05
69171;BME280;56279;47.902;12.308;2023-04-26T01:01:52;95295.09;;;5.91;91.35
69171;BME280;56279;47.902;12.308;2023-04-26T01:03:54;95295.34;;;5.90;90.90
69171;BME280;56279;47.902;12.308;2023-04-26T01:05:56;95296.91;;;5.91;90.89
69171;BME280;56279;47.902;12.308;2023-04-26T01:07:58;95302.16;;;5.91;90.95
69171;BME280;56279;47.902;12.308;2023-04-26T01:10:03;95295.91;;;5.92;90.88
69171;BME280;56279;47.902;12.308;2023-04-26T01:12:10;95291.44;;;5.92;90.87
69171;BME280;56279;47.902;12.308;2023-04-26T01:14:14;95294.59;;;5.94;90.96
69171;BME280;56279;47.902;12.308;2023-04-26T01:16:18;95288.56;;;5.94;90.81
69171;BME280;56279;47.902;12.308;2023-04-26T01:18:21;95294.84;;;5.93;90.83
69171;BME280;56279;47.902;12.308;2023-04-26T01:20:24;95294.31;;;5.91;90.70
69171;BME280;56279;47.902;12.308;2023-04-26T01:22:26;95298.47;;;5.87;91.04
69171;BME280;56279;47.902;12.308;2023-04-26T01:24:28;95289.81;;;5.86;90.99
69171;BME280;56279;47.902;12.308;2023-04-26T01:26:30;95289.81;;;5.86;90.90
69171;BME280;56279;47.902;12.308;2023-04-26T01:28:33;95300.28;;;5.86;91.12
69171;BME280;56279;47.902;12.308;2023-04-26T01:30:34;95291.66;;;5.86;90.97
69171;BME280;56279;47.902;12.308;2023-04-26T01:32:37;95298.47;;;5.87;91.07
69171;BME280;56279;47.902;12.308;2023-04-26T01:34:40;95295.84;;;5.87;91.23
69171;BME280;56279;47.902;12.308;2023-04-26T01:36:41;95298.19;;;5.88;91.16
69171;BME280;56279;47.902;12.308;2023-04-26T01:38:42;95302.41;;;5.89;90.88
69171;BME280;56279;47.902;12.308;2023-04-26T01:40:45;95302.16;;;5.91;91.10
69171;BME280;56279;47.902;12.308;2023-04-26T01:42:47;95305.81;;;5.90;91.06
69171;BME280;56279;47.902;12.308;2023-04-26T01:44:48;95304.00;;;5.90;91.22
69171;BME280;56279;47.902;12.308;2023-04-26T01:46:51;95309.25;;;5.90;91.28
69171;BME280;56279;47.902;12.308;2023-04-26T01:48:53;95301.38;;;5.90;91.15
69171;BME280;56279;47.902;12.308;2023-04-26T01:50:54;95293.75;;;5.89;91.06
69171;BME280;56279;47.902;12.308;2023-04-26T01:52:55;95302.41;;;5.89;91.41
69171;BME280;56279;47.902;12.308;2023-04-26T01:54:56;95305.03;;;5.89;91.35
69171;BME280;56279;47.902;12.308;2023-04-26T01:56:58;95309.47;;;5.89;91.30
69171;BME280;56279;47.902;12.308;2023-04-26T01:59:01;95302.66;;;5.88;91.41
69171;BME280;56279;47.902;12.308;2023-04-26T02:01:08;95306.31;;;5.87;91.56
69171;BME280;56279;47.902;12.308;2023-04-26T02:03:11;95310.00;;;5.86;91.09
69171;BME280;56279;47.902;12.308;2023-04-26T02:05:12;95305.53;;;5.86;91.60
69171;BME280;56279;47.902;12.308;2023-04-26T02:07:13;95311.56;;;5.87;91.39
69171;BME280;56279;47.902;12.308;2023-04-26T02:09:20;95310.75;;;5.86;91.46
69171;BME280;56279;47.902;12.308;2023-04-26T02:11:22;95315.22;;;5.86;91.40
69171;BME280;56279;47.902;12.308;2023-04-26T02:13:27;95315.69;;;5.83;91.65
69171;BME280;56279;47.902;12.308;2023-04-26T02:15:28;95315.16;;;5.81;91.60
69171;BME280;56279;47.902;12.308;2023-04-26T02:17:31;95315.63;;;5.78;91.67
69171;BME280;56279;47.902;12.308;2023-04-26T02:19:32;95315.09;;;5.76;91.86
69171;BME280;56279;47.902;12.308;2023-04-26T02:21:50;95309.00;;;5.70;91.50
69171;BME280;56279;47.902;12.308;2023-04-26T02:23:56;95307.97;;;5.71;91.72
69171;BME280;56279;47.902;12.308;2023-04-26T02:25:58;95314.22;;;5.70;91.85
69171;BME280;56279;47.902;12.308;2023-04-26T02:28:01;95315.78;;;5.66;91.88
69171;BME280;56279;47.902;12.308;2023-04-26T02:30:03;95312.59;;;5.64;92.42
69171;BME280;56279;47.902;12.308;2023-04-26T02:32:06;95312.84;;;5.63;91.84
69171;BME280;56279;47.902;12.308;2023-04-26T02:34:10;95311.00;;;5.63;91.86
69171;BME280;56279;47.902;12.308;2023-04-26T02:36:13;95311.81;;;5.64;91.99
69171;BME280;56279;47.902;12.308;2023-04-26T02:38:17;95312.84;;;5.63;92.16
69171;BME280;56279;47.902;12.308;2023-04-26T02:40:19;95314.69;;;5.62;91.99
69171;BME280;56279;47.902;12.308;2023-04-26T02:42:20;95312.28;;;5.60;92.11
69171;BME280;56279;47.902;12.308;2023-04-26T02:44:23;95314.91;;;5.60;92.13
69171;BME280;56279;47.902;12.308;2023-04-26T02:46:24;95311.53;;;5.60;92.13
69171;BME280;56279;47.902;12.308;2023-04-26T02:48:27;95309.13;;;5.58;92.15
69171;BME280;56279;47.902;12.308;2023-04-26T02:50:29;95305.97;;;5.56;92.33
69171;BME280;56279;47.902;12.308;2023-04-26T02:52:31;95310.41;;;5.56;92.35
69171;BME280;56279;47.902;12.308;2023-04-26T02:54:32;95311.22;;;5.56;92.47
69171;BME280;56279;47.902;12.308;2023-04-26T02:56:34;95308.59;;;5.56;92.86
69171;BME280;56279;47.902;12.308;2023-04-26T02:58:36;95324.84;;;5.58;92.73
69171;BME280;56279;47.902;12.308;2023-04-26T03:00:37;95319.06;;;5.56;92.70
69171;BME280;56279;47.902;12.308;2023-04-26T03:02:39;95326.13;;;5.56;92.45
69171;BME280;56279;47.902;12.308;2023-04-26T03:04:41;95314.84;;;5.55;92.58
69171;BME280;56279;47.902;12.308;2023-04-26T03:06:43;95322.69;;;5.55;92.57
69171;BME280;56279;47.902;12.308;2023-04-26T03:08:44;95321.94;;;5.55;92.43
69171;BME280;56279;47.902;12.308;2023-04-26T03:10:46;95314.63;;;5.57;92.64
69171;BME280;56279;47.902;12.308;2023-04-26T03:12:47;95305.72;;;5.58;92.58
69171;BME280;56279;47.902;12.308;2023-04-26T03:14:49;95305.50;;;5.59;92.58
69171;BME280;56279;47.902;12.308;2023-04-26T03:16:51;95314.91;;;5.60;92.51
69171;BME280;56279;47.902;12.308;2023-04-26T03:18:53;95310.22;;;5.63;92.63
69171;BME280;56279;47.902;12.308;2023-04-26T03:20:55;95301.59;;;5.62;92.70
69171;BME280;56279;47.902;12.308;2023-04-26T03:22:56;95307.59;;;5.63;92.82
69171;BME280;56279;47.902;12.308;2023-04-26T03:24:58;95313.88;;;5.62;92.47
69171;BME280;56279;47.902;12.308;2023-04-26T03:27:02;95312.28;;;5.60;92.69
69171;BME280;56279;47.902;12.308;2023-04-26T03:29:04;95313.09;;;5.61;92.82
69171;BME280;56279;47.902;12.308;2023-04-26T03:31:05;95307.59;;;5.63;92.90
69171;BME280;56279;47.902;12.308;2023-04-26T03:33:06;95315.22;;;5.64;93.01
69171;BME280;56279;47.902;12.308;2023-04-26T03:35:08;95314.16;;;5.65;92.87
69171;BME280;56279;47.902;12.308;2023-04-26T03:37:10;95322.56;;;5.67;92.97
69171;BME280;56279;47.902;12.308;2023-04-26T03:39:12;95319.72;;;5.69;93.06
69171;BME280;56279;47.902;12.308;2023-04-26T03:41:14;95328.91;;;5.71;92.80
69171;BME280;56279;47.902;12.308;2023-04-26T03:43:17;95327.88;;;5.72;92.58
69171;BME280;56279;47.902;12.308;2023-04-26T03:45:19;95332.06;;;5.73;92.65
69171;BME280;56279;47.902;12.308;2023-04-26T03:47:20;95327.63;;;5.74;92.80
69171;BME280;56279;47.902;12.308;2023-04-26T03:49:22;95347.53;;;5.75;92.53
69171;BME280;56279;47.902;12.308;2023-04-26T03:51:23;95340.72;;;5.74;92.82
69171;BME280;56279;47.902;12.308;2023-04-26T03:53:24;95338.09;;;5.74;92.76
69171;BME280;56279;47.902;12.308;2023-04-26T03:55:26;95345.41;;;5.72;92.50
69171;BME280;56279;47.902;12.308;2023-04-26T03:57:29;95345.09;;;5.68;92.55
69171;BME280;56279;47.902;12.308;2023-04-26T03:59:31;95337.72;;;5.65;92.46
69171;BME280;56279;47.902;12.308;2023-04-26T04:01:33;95339.00;;;5.63;92.44
69171;BME280;56279;47.902;12.308;2023-04-26T04:03:35;95335.84;;;5.60;92.63
69171;BME280;56279;47.902;12.308;2023-04-26T04:05:37;95341.59;;;5.57;92.59
69171;BME280;56279;47.902;12.308;2023-04-26T04:07:38;95349.13;;;5.54;92.65
69171;BME280;56279;47.902;12.308;2023-04-26T04:09:39;95348.03;;;5.50;92.66
69171;BME280;56279;47.902;12.308;2023-04-26T04:11:41;95354.06;;;5.50;92.69
69171;BME280;56279;47.902;12.308;2023-04-26T04:13:42;95351.22;;;5.52;92.71
69171;BME280;56279;47.902;12.308;2023-04-26T04:15:43;95350.66;;;5.50;92.74
69171;BME280;56279;47.902;12.308;2023-04-26T04:17:45;95354.06;;;5.50;92.55
69171;BME280;56279;47.902;12.308;2023-04-26T04:19:46;95354.06;;;5.50;93.06
69171;BME280;56279;47.902;12.308;2023-04-26T04:21:47;95356.69;;;5.50;92.76
69171;BME280;56279;47.902;12.308;2023-04-26T04:23:49;95354.84;;;5.51;92.72
69171;BME280;56279;47.902;12.308;2023-04-26T04:25:50;95356.69;;;5.50;92.73
69171;BME280;56279;47.902;12.308;2023-04-26T04:27:52;95356.44;;;5.52;92.69
69171;BME280;56279;47.902;12.308;2023-04-26T04:29:54;95362.47;;;5.52;92.68
69171;BME280;56279;47.902;12.308;2023-04-26T04:31:58;95362.47;;;5.52;92.53
69171;BME280;56279;47.902;12.308;2023-04-26T04:34:00;95363.28;;;5.53;92.65
69171;BME280;56279;47.902;12.308;2023-04-26T04:36:01;95368.50;;;5.53;92.52
69171;BME280;56279;47.902;12.308;2023-04-26T04:38:02;95363.00;;;5.54;92.41
69171;BME280;56279;47.902;12.308;2023-04-26T04:40:05;95361.41;;;5.53;92.64
69171;BME280;56279;47.902;12.308;2023-04-26T04:42:09;95359.59;;;5.54;92.42
69171;BME280;56279;47.902;12.308;2023-04-26T04:44:17;95360.94;;;5.56;92.35
69171;BME280;56279;47.902;12.308;2023-04-26T04:46:19;95364.09;;;5.58;92.58
69171;BME280;56279;47.902;12.308;2023-04-26T04:48:21;95362.28;;;5.59;92.58
69171;BME280;56279;47.902;12.308;2023-04-26T04:50:23;95374.88;;;5.62;92.58
69171;BME280;56279;47.902;12.308;2023-04-26T04:52:24;95378.28;;;5.63;92.86
69171;BME280;56279;47.902;12.308;2023-04-26T04:54:26;95372.28;;;5.62;92.49
69171;BME280;56279;47.902;12.308;2023-04-26T04:56:27;95375.66;;;5.63;92.85
69171;BME280;56279;47.902;12.308;2023-04-26T04:58:31;95379.88;;;5.64;92.84
69171;BME280;56279;47.902;12.308;2023-04-26T05:00:32;95382.22;;;5.65;92.64
69171;BME280;56279;47.902;12.308;2023-04-26T05:02:47;95385.41;;;5.67;92.34
69171;BME280;56279;47.902;12.308;2023-04-26T05:04:49;95390.16;;;5.70;92.22
69171;BME280;56279;47.902;12.308;2023-04-26T05:06:51;95399.59;;;5.71;92.74
69171;BME280;56279;47.902;12.308;2023-04-26T05:08:53;95392.53;;;5.72;92.46
69171;BME280;56279;47.902;12.308;2023-04-26T05:10:54;95392.84;;;5.75;92.46
69171;BME280;56279;47.902;12.308;2023-04-26T05:12:56;95396.78;;;5.78;92.18
69171;BME280;56279;47.902;12.308;2023-04-26T05:14:58;95398.38;;;5.79;92.25
69171;BME280;56279;47.902;12.308;2023-04-26T05:17:00;95392.91;;;5.80;92.12
69171;BME280;56279;47.902;12.308;2023-04-26T05:19:01;95393.19;;;5.84;92.30
69171;BME280;56279;47.902;12.308;2023-04-26T05:21:04;95401.38;;;5.87;92.28
69171;BME280;56279;47.902;12.308;2023-04-26T05:23:06;95399.38;;;5.94;92.20
69171;BME280;56279;47.902;12.308;2023-04-26T05:25:10;95405.16;;;5.96;91.96
69171;BME280;56279;47.902;12.308;2023-04-26T05:27:13;95405.69;;;5.98;91.83
69171;BME280;56279;47.902;12.308;2023-04-26T05:29:29;95406.50;;;5.99;91.42
69171;BME280;56279;47.902;12.308;2023-04-26T05:31:43;95408.06;;;6.00;91.37
69171;BME280;56279;47.902;12.308;2023-04-26T05:33:55;95411.72;;;5.99;91.23
69171;BME280;56279;47.902;12.308;2023-04-26T05:36:10;95412.28;;;6.01;91.53
69171;BME280;56279;47.902;12.308;2023-04-26T05:38:11;95414.16;;;6.05;91.52
69171;BME280;56279;47.902;12.308;2023-04-26T05:40:13;95417.09;;;6.09;91.55
69171;BME280;56279;47.902;12.308;2023-04-26T05:42:14;95421.59;;;6.13;91.19
69171;BME280;56279;47.902;12.308;2023-04-26T05:44:17;95416.63;;;6.17;91.23
69171;BME280;56279;47.902;12.308;2023-04-26T05:46:19;95410.09;;;6.19;90.98
69171;BME280;56279;47.902;12.308;2023-04-26T05:48:22;95408.56;;;6.23;90.88
69171;BME280;56279;47.902;12.308;2023-04-26T05:50:24;95414.13;;;6.27;91.00
69171;BME280;56279;47.902;12.308;2023-04-26T05:52:27;95412.03;;;6.29;90.79
69171;BME280;56279;47.902;12.308;2023-04-26T05:54:28;95411.31;;;6.34;91.21
69171;BME280;56279;47.902;12.308;2023-04-26T05:56:29;95406.66;;;6.41;91.06
69171;BME280;56279;47.902;12.308;2023-04-26T05:58:31;95414.84;;;6.49;90.61
69171;BME280;56279;47.902;12.308;2023-04-26T06:00:34;95418.59;;;6.58;90.13
69171;BME280;56279;47.902;12.308;2023-04-26T06:02:36;95425.75;;;6.68;90.17
69171;BME280;56279;47.902;12.308;2023-04-26T06:04:38;95424.25;;;6.77;89.64
69171;BME280;56279;47.902;12.308;2023-04-26T06:06:46;95427.94;;;6.76;89.00
69171;BME280;56279;47.902;12.308;2023-04-26T06:08:48;95429.22;;;6.73;89.18
69171;BME280;56279;47.902;12.308;2023-04-26T06:10:52;95432.34;;;6.70;89.05
69171;BME280;56279;47.902;12.308;2023-04-26T06:12:53;95432.91;;;6.77;88.89
69171;BME280;56279;47.902;12.308;2023-04-26T06:14:56;95435.91;;;6.86;89.16
69171;BME280;56279;47.902;12.308;2023-04-26T06:17:01;95433.28;;;6.91;88.65
69171;BME280;56279;47.902;12.308;2023-04-26T06:19:03;95437.75;;;6.90;88.72
69171;BME280;56279;47.902;12.308;2023-04-26T06:21:04;95439.81;;;6.88;88.60
69171;BME280;56279;47.902;12.308;2023-04-26T06:23:06;95440.84;;;6.82;88.83
69171;BME280;56279;47.902;12.308;2023-04-26T06:25:08;95446.56;;;6.74;88.51
69171;BME280;56279;47.902;12.308;2023-04-26T06:27:11;95445.44;;;6.70;89.03
69171;BME280;56279;47.902;12.308;2023-04-26T06:29:15;95442.03;;;6.70;89.21
69171;BME280;56279;47.902;12.308;2023-04-26T06:31:17;95438.88;;;6.68;88.68
69171;BME280;56279;47.902;12.308;2023-04-26T06:33:20;95446.00;;;6.72;88.87
69171;BME280;56279;47.902;12.308;2023-04-26T06:35:22;95458.66;;;6.80;88.96
69171;BME280;56279;47.902;12.308;2023-04-26T06:37:27;95453.50;;;6.90;88.29
69171;BME280;56279;47.902;12.308;2023-04-26T06:39:29;95447.81;;;7.04;88.30
69171;BME280;56279;47.902;12.308;2023-04-26T06:41:30;95443.44;;;7.14;87.49
69171;BME280;56279;47.902;12.308;2023-04-26T06:43:31;95448.25;;;7.27;87.56
69171;BME280;56279;47.902;12.308;2023-04-26T06:45:36;95446.75;;;7.36;87.11
69171;BME280;56279;47.902;12.308;2023-04-26T06:47:38;95452.06;;;7.46;86.96
69171;BME280;56279;47.902;12.308;2023-04-26T06:49:39;95447.91;;;7.55;86.58
69171;BME280;56279;47.902;12.308;2023-04-26T06:51:41;95450.81;;;7.59;86.42
69171;BME280;56279;47.902;12.308;2023-04-26T06:53:42;95446.66;;;7.63;86.47
69171;BME280;56279;47.902;12.308;2023-04-26T06:55:43;95452.47;;;7.70;86.90
69171;BME280;56279;47.902;12.308;2023-04-26T06:57:44;95452.22;;;7.77;85.97
69171;BME280;56279;47.902;12.308;2023-04-26T06:59:45;95448.31;;;7.84;86.15
69171;BME280;56279;47.902;12.308;2023-04-26T07:01:47;95448.06;;;7.86;85.66
69171;BME280;56279;47.902;12.308;2023-04-26T07:03:48;95454.13;;;7.91;85.34
69171;BME280;56279;47.902;12.308;2023-04-26T07:05:50;95456.25;;;7.94;84.71
69171;BME280;56279;47.902;12.308;2023-04-26T07:07:51;95453.63;;;7.99;84.59
69171;BME280;56279;47.902;12.308;2023-04-26T07:09:52;95454.75;;;8.13;84.48
69171;BME280;56279;47.902;12.308;2023-04-26T07:11:53;95455.28;;;8.20;83.96
69171;BME280;56279;47.902;12.308;2023-04-26T07:13:55;95455.56;;;8.24;83.76
69171;BME280;56279;47.902;12.308;2023-04-26T07:15:56;95455.03;;;8.22;83.47
69171;BME280;56279;47.902;12.308;2023-04-26T07:17:58;95452.66;;;8.20;83.42
69171;BME280;56279;47.902;12.308;2023-04-26T07:19:59;95450.88;;;8.26;83.58
69171;BME280;56279;47.902;12.308;2023-04-26T07:22:00;95457.75;;;8.37;83.58
69171;BME280;56279;47.902;12.308;2023-04-26T07:24:02;95459.59;;;8.47;83.03
69171;BME280;56279;47.902;12.308;2023-04-26T07:26:04;95454.38;;;8.52;82.34
69171;BME280;56279;47.902;12.308;2023-04-26T07:28:05;95457.25;;;8.55;81.99
69171;BME280;56279;47.902;12.308;2023-04-26T07:30:07;95454.38;;;8.62;81.66
69171;BME280;56279;47.902;12.308;2023-04-26T07:32:09;95449.91;;;8.67;81.34
69171;BME280;56279;47.902;12.308;2023-04-26T07:34:11;95449.13;;;8.72;81.15
69171;BME280;56279;47.902;12.308;2023-04-26T07:36:13;95449.63;;;8.69;81.11
69171;BME280;56279;47.902;12.308;2023-04-26T07:38:14;95451.75;;;8.67;80.81
69171;BME280;56279;47.902;12.308;2023-04-26T07:40:19;95452.00;;;8.65;81.72
69171;BME280;56279;47.902;12.308;2023-04-26T07:42:22;95449.38;;;8.75;80.96
69171;BME280;56279;47.902;12.308;2023-04-26T07:44:23;95450.97;;;8.91;81.13
69171;BME280;56279;47.902;12.308;2023-04-26T07:46:25;95456.75;;;9.03;80.43
69171;BME280;56279;47.902;12.308;2023-04-26T07:48:26;95460.47;;;9.02;80.13
69171;BME280;56279;47.902;12.308;2023-04-26T07:50:28;95449.13;;;8.97;80.07
69171;BME280;56279;47.902;12.308;2023-04-26T07:52:29;95456.50;;;8.95;80.15
69171;BME280;56279;47.902;12.308;2023-04-26T07:54:30;95452.84;;;8.91;79.99
69171;BME280;56279;47.902;12.308;2023-04-26T07:56:32;95451.75;;;8.87;80.06
69171;BME280;56279;47.902;12.308;2023-04-26T07:58:34;95454.41;;;8.82;80.67
69171;BME280;56279;47.902;12.308;2023-04-26T08:00:36;95453.06;;;8.74;80.76
69171;BME280;56279;47.902;12.308;2023-04-26T08:02:38;95451.22;;;8.70;81.34
69171;BME280;56279;47.902;12.308;2023-04-26T08:04:46;95454.13;;;8.73;81.35
69171;BME280;56279;47.902;12.308;2023-04-26T08:06:49;95457.56;;;8.89;80.82
69171;BME280;56279;47.902;12.308;2023-04-26T08:08:51;95454.94;;;9.04;79.75
69171;BME280;56279;47.902;12.308;2023-04-26T08:10:54;95454.94;;;9.19;79.60
69171;BME280;56279;47.902;12.308;2023-04-26T08:12:55;95451.75;;;9.27;78.83
69171;BME280;56279;47.902;12.308;2023-04-26T08:14:58;95455.19;;;9.33;78.69
69171;BME280;56279;47.902;12.308;2023-04-26T08:17:00;95456.22;;;9.37;78.34
69171;BME280;56279;47.902;12.308;2023-04-26T08:19:02;95444.38;;;9.44;77.50
69171;BME280;56279;47.902;12.308;2023-04-26T08:21:03;95452.50;;;9.48;77.35
69171;BME280;56279;47.902;12.308;2023-04-26T08:23:04;95455.41;;;9.51;77.11
69171;BME280;56279;47.902;12.308;2023-04-26T08:25:07;95446.44;;;9.52;77.07
69171;BME280;56279;47.902;12.308;2023-04-26T08:27:08;95454.09;;;9.59;76.83
69171;BME280;56279;47.902;12.308;2023-04-26T08:29:09;95451.69;;;9.67;76.84
69171;BME280;56279;47.902;12.308;2023-04-26T08:31:10;95450.38;;;9.75;76.97
69171;BME280;56279;47.902;12.308;2023-04-26T08:33:12;95440.03;;;9.89;76.35
69171;BME280;56279;47.902;12.308;2023-04-26T08:35:13;95443.38;;;10.09;75.17
69171;BME280;56279;47.902;12.308;2023-04-26T08:37:14;95438.84;;;10.30;74.25
69171;BME280;56279;47.902;12.308;2023-04-26T08:39:17;95450.38;;;10.44;73.49
69171;BME280;56279;47.902;12.308;2023-04-26T08:41:21;95445.84;;;10.55;72.40
69171;BME280;56279;47.902;12.308;2023-04-26T08:43:23;95441.59;;;10.59;71.86
69171;BME280;56279;47.902;12.308;2023-04-26T08:45:26;95446.06;;;10.58;71.66
69171;BME280;56279;47.902;12.308;2023-04-26T08:47:40;95440.25;;;10.61;72.03
69171;BME280;56279;47.902;12.308;2023-04-26T08:49:44;95431.75;;;10.69;71.29
69171;BME280;56279;47.902;12.308;2023-04-26T08:51:48;95436.34;;;10.49;70.92
69171;BME280;56279;47.902;12.308;2023-04-26T08:53:51;95437.72;;;10.41;71.99
69171;BME280;56279;47.902;12.308;2023-04-26T08:55:53;95429.84;;;10.36;71.31
69171;BME280;56279;47.902;12.308;2023-04-26T08:57:55;95427.50;;;10.29;71.31
69171;BME280;56279;47.902;12.308;2023-04-26T08:59:58;95426.94;;;10.37;71.57
69171;BME280;56279;47.902;12.308;2023-04-26T09:02:00;95434.75;;;10.53;70.83
69171;BME280;56279;47.902;12.308;2023-04-26T09:04:03;95425.97;;;10.62;70.71
69171;BME280;56279;47.902;12.308;2023-04-26T09:06:05;95428.00;;;10.80;71.02
69171;BME280;56279;47.902;12.308;2023-04-26T09:08:07;95431.53;;;10.99;70.00
69171;BME280;56279;47.902;12.308;2023-04-26T09:10:11;95423.22;;;11.11;69.07
69171;BME280;56279;47.902;12.308;2023-04-26T09:12:13;95429.28;;;11.17;68.71
69171;BME280;56279;47.902;12.308;2023-04-26T09:14:15;95421.81;;;11.24;68.09
69171;BME280;56279;47.902;12.308;2023-04-26T09:16:17;95425.44;;;11.33;68.03
69171;BME280;56279;47.902;12.308;2023-04-26T09:18:20;95424.84;;;11.41;67.59
69171;BME280;56279;47.902;12.308;2023-04-26T09:20:26;95425.34;;;11.43;67.19
69171;BME280;56279;47.902;12.308;2023-04-26T09:22:35;95427.53;;;11.36;66.88
69171;BME280;56279;47.902;12.308;2023-04-26T09:24:49;95430.50;;;11.29;66.57
69171;BME280;56279;47.902;12.308;2023-04-26T09:27:00;95431.16;;;11.11;65.95
69171;BME280;56279;47.902;12.308;2023-04-26T09:29:19;95425.41;;;11.04;66.21
69171;BME280;56279;47.902;12.308;2023-04-26T09:31:38;95428.81;;;11.09;66.50
69171;BME280;56279;47.902;12.308;2023-04-26T09:33:59;95423.69;;;11.18;66.00
69171;BME280;56279;47.902;12.308;2023-04-26T09:36:10;95425.63;;;11.13;66.46
69171;BME280;56279;47.902;12.308;2023-04-26T09:38:15;95433.31;;;11.04;66.28
69171;BME280;56279;47.902;12.308;2023-04-26T09:40:20;95425.25;;;10.90;66.18
69171;BME280;56279;47.902;12.308;2023-04-26T09:42:21;95426.56;;;10.93;66.60
69171;BME280;56279;47.902;12.308;2023-04-26T09:44:24;95428.03;;;11.04;66.43
69171;BME280;56279;47.902;12.308;2023-04-26T09:46:25;95427.97;;;11.14;66.09
69171;BME280;56279;47.902;12.308;2023-04-26T09:48:28;95430.91;;;11.13;65.27
69171;BME280;56279;47.902;12.308;2023-04-26T09:50:30;95419.75;;;11.16;65.58
69171;BME280;56279;47.902;12.308;2023-04-26T09:52:41;95421.81;;;11.24;65.62
69171;BME280;56279;47.902;12.308;2023-04-26T09:56:58;95412.38;;;11.18;65.25
69171;BME280;56279;47.902;12.308;2023-04-26T09:58:59;95404.53;;;11.07;64.71
69171;BME280;56279;47.902;12.308;2023-04-26T10:01:03;95409.69;;;10.89;64.77
69171;BME280;56279;47.902;12.308;2023-04-26T10:03:07;95415.13;;;10.69;64.90
69171;BME280;56279;47.902;12.308;2023-04-26T10:05:08;95411.25;;;10.56;65.41
69171;BME280;56279;47.902;12.308;2023-04-26T10:07:11;95416.56;;;10.51;65.47
69171;BME280;56279;47.902;12.308;2023-04-26T10:09:13;95412.00;;;10.62;65.42
69171;BME280;56279;47.902;12.308;2023-04-26T10:11:16;95406.94;;;10.70;64.70
69171;BME280;56279;47.902;12.308;2023-04-26T10:13:18;95404.22;;;10.80;64.63
69171;BME280;56279;47.902;12.308;2023-04-26T10:15:19;95395.94;;;10.92;64.15
69171;BME280;56279;47.902;12.308;2023-04-26T10:17:21;95405.81;;;11.10;64.14
69171;BME280;56279;47.902;12.308;2023-04-26T10:19:22;95404.91;;;11.25;64.30
69171;BME280;56279;47.902;12.308;2023-04-26T10:21:30;95407.00;;;11.23;63.94
69171;BME280;56279;47.902;12.308;2023-04-26T10:23:33;95405.31;;;11.08;64.41
69171;BME280;56279;47.902;12.308;2023-04-26T10:25:37;95407.81;;;10.94;64.52
69171;BME280;56279;47.902;12.308;2023-04-26T10:27:48;95407.88;;;10.84;64.95
69171;BME280;56279;47.902;12.308;2023-04-26T10:34:29;95395.63;;;10.65;65.34
69171;BME280;56279;47.902;12.308;2023-04-26T10:37:05;95393.22;;;10.68;65.57
69171;BME280;56279;47.902;12.308;2023-04-26T10:39:19;95393.94;;;10.79;65.77
69171;BME280;56279;47.902;12.308;2023-04-26T10:41:34;95393.47;;;11.05;65.47
69171;BME280;56279;47.902;12.308;2023-04-26T10:43:36;95398.00;;;11.29;64.79
69171;BME280;56279;47.902;12.308;2023-04-26T10:45:47;95390.75;;;11.39;64.08
69171;BME280;56279;47.902;12.308;2023-04-26T10:47:49;95392.66;;;11.34;64.08
69171;BME280;56279;47.902;12.308;2023-04-26T10:49:50;95386.31;;;11.35;64.67
69171;BME280;56279;47.902;12.308;2023-04-26T10:52:10;95385.72;;;11.43;64.26
69171;BME280;56279;47.902;12.308;2023-04-26T10:54:13;95382.50;;;11.46;63.02
69171;BME280;56279;47.902;12.308;2023-04-26T10:58:32;95375.78;;;11.82;62.60